createdAt,value
2022-09-22T00:02:05.861Z,101177.41
2022-09-22T00:05:08.383Z,101177.22
2022-09-22T00:08:10.287Z,101172.81
2022-09-22T00:11:20.266Z,101183.31
2022-09-22T00:14:25.265Z,101173.66
2022-09-22T00:17:27.133Z,101173.16
2022-09-22T00:20:29.177Z,101169.03
2022-09-22T00:23:32.009Z,101158.53
2022-09-22T00:26:35.765Z,101158.59
2022-09-22T00:29:37.710Z,101167.72
2022-09-22T00:32:40.394Z,101157.69
2022-09-22T00:35:42.385Z,101164.44
2022-09-22T00:38:44.642Z,101166.75
2022-09-22T00:41:49.446Z,101163.72
2022-09-22T00:44:51.543Z,101152.88
2022-09-22T00:47:53.583Z,101152.69
2022-09-22T00:50:58.329Z,101155.06
2022-09-22T00:54:04.672Z,101157.00
2022-09-22T00:57:18.761Z,101153.03
2022-09-22T01:00:21.334Z,101154.53
2022-09-22T01:03:29.812Z,101155.00
2022-09-22T01:06:32.305Z,101150.00
2022-09-22T01:09:34.897Z,101146.16
2022-09-22T01:12:37.822Z,101149.78
2022-09-22T01:15:51.213Z,101153.53
2022-09-22T01:19:28.316Z,101156.88
2022-09-22T01:22:55.915Z,101159.22
2022-09-22T01:26:16.553Z,101160.88
2022-09-22T01:29:33.432Z,101161.94
2022-09-22T01:32:49.994Z,101155.22
2022-09-22T01:36:33.250Z,101159.16
2022-09-22T01:39:44.609Z,101150.38
2022-09-22T01:42:57.537Z,101151.41
2022-09-22T01:46:03.270Z,101156.22
2022-09-22T01:49:13.629Z,101152.44
2022-09-22T01:52:22.617Z,101153.09
2022-09-22T01:55:32.765Z,101155.22
2022-09-22T01:58:41.050Z,101129.34
2022-09-22T02:02:02.814Z,101151.84
2022-09-22T02:05:18.594Z,101161.19
2022-09-22T02:08:30.133Z,101154.28
2022-09-22T02:11:32.113Z,101151.38
2022-09-22T02:14:34.458Z,101151.16
2022-09-22T02:17:36.601Z,101159.25
2022-09-22T02:20:39.278Z,101156.94
2022-09-22T02:23:42.745Z,101157.97
2022-09-22T02:26:44.726Z,101159.09
2022-09-22T02:29:52.789Z,101148.44
2022-09-22T02:32:56.474Z,101142.34
2022-09-22T02:36:17.292Z,101156.38
2022-09-22T02:39:43.964Z,101158.88
2022-09-22T02:43:23.283Z,101150.06
2022-09-22T02:46:38.674Z,101157.16
2022-09-22T02:49:43.992Z,101157.78
2022-09-22T02:52:45.906Z,101164.53
2022-09-22T02:55:48.434Z,101156.75
2022-09-22T02:58:51.626Z,101159.72
2022-09-22T03:01:56.045Z,101157.00
2022-09-22T03:04:58.078Z,101153.66
2022-09-22T03:08:00.118Z,101166.97
2022-09-22T03:11:02.267Z,101167.19
2022-09-22T03:14:04.291Z,101168.25
2022-09-22T03:17:06.204Z,101174.34
2022-09-22T03:20:11.731Z,101181.91
2022-09-22T03:23:13.656Z,101178.00
2022-09-22T03:26:15.655Z,101184.44
2022-09-22T03:29:17.537Z,101168.34
2022-09-22T03:32:19.479Z,101167.28
2022-09-22T03:35:21.477Z,101182.66
2022-09-22T03:38:23.681Z,101189.75
2022-09-22T03:41:26.261Z,101188.53
2022-09-22T03:44:28.200Z,101172.34
2022-09-22T03:47:30.799Z,101182.91
2022-09-22T03:50:32.698Z,101181.41
2022-09-22T03:53:35.585Z,101182.19
2022-09-22T03:56:38.559Z,101183.22
2022-09-22T03:59:40.547Z,101181.94
2022-09-22T04:02:42.733Z,101186.59
2022-09-22T04:05:51.789Z,101187.03
2022-09-22T04:08:53.755Z,101188.13
2022-09-22T04:11:55.880Z,101186.72
2022-09-22T04:14:57.847Z,101187.34
2022-09-22T04:17:59.773Z,101190.72
2022-09-22T04:21:01.694Z,101196.16
2022-09-22T04:24:04.331Z,101186.91
2022-09-22T04:27:19.529Z,101191.50
2022-09-22T04:30:22.180Z,101192.78
2022-09-22T04:33:24.793Z,101190.06
2022-09-22T04:36:26.838Z,101192.41
2022-09-22T04:39:29.096Z,101199.31
2022-09-22T04:42:31.048Z,101194.72
2022-09-22T04:45:37.366Z,101184.44
2022-09-22T04:48:41.410Z,101194.47
2022-09-22T04:51:43.398Z,101193.81
2022-09-22T04:54:45.332Z,101189.22
2022-09-22T04:57:48.700Z,101196.34
2022-09-22T05:00:50.886Z,101183.72
2022-09-22T05:03:53.581Z,101189.81
2022-09-22T05:06:55.586Z,101195.06
2022-09-22T05:09:57.658Z,101198.59
2022-09-22T05:13:00.211Z,101197.38
2022-09-22T05:16:03.164Z,101201.38
2022-09-22T05:19:05.137Z,101198.88
2022-09-22T05:22:07.152Z,101196.59
2022-09-22T05:25:11.689Z,101199.31
2022-09-22T05:28:13.689Z,101201.38
2022-09-22T05:31:15.662Z,101199.06
2022-09-22T05:34:17.773Z,101198.03
2022-09-22T05:37:19.849Z,101201.22
2022-09-22T05:40:24.232Z,101195.34
2022-09-22T05:43:26.209Z,101204.38
2022-09-22T05:46:28.916Z,101191.56
2022-09-22T05:49:30.994Z,101183.34
2022-09-22T05:52:33.394Z,101197.72
2022-09-22T05:55:35.876Z,101200.19
2022-09-22T05:58:37.845Z,101198.75
2022-09-22T06:01:39.985Z,101192.94
2022-09-22T06:04:41.920Z,101193.00
2022-09-22T06:07:43.997Z,101197.91
2022-09-22T06:10:45.909Z,101190.19
2022-09-22T06:13:51.197Z,101189.69
2022-09-22T06:16:53.551Z,101195.72
2022-09-22T06:19:55.547Z,101192.00
2022-09-22T06:22:57.486Z,101204.16
2022-09-22T06:25:59.741Z,101200.63
2022-09-22T06:29:01.720Z,101204.63
2022-09-22T06:32:07.567Z,101203.44
2022-09-22T06:35:11.526Z,101200.50
2022-09-22T06:38:17.585Z,101189.63
2022-09-22T06:41:19.759Z,101198.97
2022-09-22T06:44:22.032Z,101190.44
2022-09-22T06:47:24.106Z,101201.66
2022-09-22T06:50:31.173Z,101194.53
2022-09-22T06:53:33.267Z,101202.47
2022-09-22T06:56:42.750Z,101185.06
2022-09-22T06:59:45.727Z,101205.84
2022-09-22T07:02:48.006Z,101203.78
2022-09-22T07:06:01.296Z,101197.25
2022-09-22T07:09:05.604Z,101193.38
2022-09-22T07:12:07.853Z,101200.09
2022-09-22T07:15:10.554Z,101176.47
2022-09-22T07:18:12.509Z,101194.78
2022-09-22T07:21:17.153Z,101188.84
2022-09-22T07:24:19.134Z,101188.41
2022-09-22T07:27:21.070Z,101168.00
2022-09-22T07:30:23.077Z,101201.00
2022-09-22T07:33:26.073Z,101188.44
2022-09-22T07:36:30.654Z,101193.00
2022-09-22T07:39:32.595Z,101192.16
2022-09-22T07:42:34.608Z,101183.66
2022-09-22T07:45:36.572Z,101191.44
2022-09-22T07:48:46.988Z,101190.22
2022-09-22T07:51:49.893Z,101190.72
2022-09-22T07:54:51.880Z,101186.75
2022-09-22T07:57:58.304Z,101189.06
2022-09-22T08:01:08.408Z,101194.66
2022-09-22T08:04:16.837Z,101184.78
2022-09-22T08:07:18.739Z,101193.63
2022-09-22T08:10:21.103Z,101198.72
2022-09-22T08:13:24.371Z,101188.69
2022-09-22T08:16:29.010Z,101191.63
2022-09-22T08:19:32.209Z,101194.13
2022-09-22T08:22:35.100Z,101196.78
2022-09-22T08:25:37.061Z,101188.63
2022-09-22T08:28:38.929Z,101182.84
2022-09-22T08:31:42.403Z,101181.22
2022-09-22T08:34:45.383Z,101182.34
2022-09-22T08:37:50.418Z,101179.09
2022-09-22T08:41:05.260Z,101180.81
2022-09-22T08:44:07.130Z,101176.81
2022-09-22T08:47:17.574Z,101181.81
2022-09-22T08:50:58.238Z,101179.09
2022-09-22T08:54:07.184Z,101168.25
2022-09-22T08:57:21.436Z,101179.34
2022-09-22T09:00:25.493Z,101178.53
2022-09-22T09:03:49.171Z,101157.34
2022-09-22T09:07:25.994Z,101171.09
2022-09-22T09:10:49.018Z,101164.44
2022-09-22T09:14:22.254Z,101161.78
2022-09-22T09:17:35.237Z,101158.94
2022-09-22T09:20:44.713Z,101163.53
2022-09-22T09:27:21.754Z,101172.19
2022-09-22T09:30:23.604Z,101179.47
2022-09-22T09:33:40.220Z,101173.81
2022-09-22T09:36:55.435Z,101177.53
2022-09-22T09:40:02.182Z,101178.81
2022-09-22T09:43:06.220Z,101173.03
2022-09-22T09:46:54.590Z,101176.59
2022-09-22T09:49:56.885Z,101173.03
2022-09-22T09:52:59.905Z,101163.38
2022-09-22T09:56:02.044Z,101164.03
2022-09-22T09:59:25.351Z,101165.31
2022-09-22T10:02:29.094Z,101151.06
2022-09-22T10:05:33.588Z,101154.03
2022-09-22T10:08:51.644Z,101138.75
2022-09-22T10:12:01.562Z,101149.06
2022-09-22T10:15:03.783Z,101171.81
2022-09-22T10:18:24.285Z,101170.59
2022-09-22T10:21:26.880Z,101158.91
2022-09-22T10:24:33.148Z,101150.16
2022-09-22T10:27:35.326Z,101174.38
2022-09-22T10:30:37.924Z,101190.75
2022-09-22T10:33:57.505Z,101193.19
2022-09-22T10:37:01.188Z,101175.13
2022-09-22T10:40:03.952Z,101181.53
2022-09-22T10:43:13.825Z,101176.13
2022-09-22T10:46:21.562Z,101183.31
2022-09-22T10:49:31.420Z,101174.09
2022-09-22T10:53:05.967Z,101170.81
2022-09-22T10:56:09.975Z,101168.09
2022-09-22T10:59:40.810Z,101169.16
2022-09-22T11:02:45.547Z,101163.31
2022-09-22T11:06:29.035Z,101158.94
2022-09-22T11:10:01.861Z,101145.75
2022-09-22T11:13:32.861Z,101142.66
2022-09-22T11:16:43.675Z,101136.78
2022-09-22T11:19:53.053Z,101134.28
2022-09-22T11:23:07.143Z,101130.53
2022-09-22T11:26:33.883Z,101133.97
2022-09-22T11:29:45.428Z,101107.53
2022-09-22T11:33:17.467Z,101112.16
2022-09-22T11:36:25.071Z,101112.13
2022-09-22T11:39:56.055Z,101109.13
2022-09-22T11:43:07.106Z,101129.34
2022-09-22T11:46:57.156Z,101126.41
2022-09-22T11:50:10.901Z,101122.72
2022-09-22T11:53:40.501Z,101116.28
2022-09-22T11:56:48.627Z,101123.00
2022-09-22T12:00:05.826Z,101123.84
2022-09-22T12:03:18.563Z,101130.06
2022-09-22T12:06:26.321Z,101133.19
2022-09-22T12:09:39.600Z,101131.47
2022-09-22T12:12:46.666Z,101146.78
2022-09-22T12:16:10.312Z,101143.16
2022-09-22T12:19:21.772Z,101135.22
2022-09-22T12:22:36.429Z,101122.50
2022-09-22T12:25:54.556Z,101114.13
2022-09-22T12:28:58.788Z,101113.75
2022-09-22T12:32:01.174Z,101123.78
2022-09-22T12:35:04.532Z,101134.88
2022-09-22T12:38:06.542Z,101139.28
2022-09-22T12:41:08.715Z,101125.69
2022-09-22T12:44:15.392Z,101116.28
2022-09-22T12:47:52.483Z,101115.66
2022-09-22T12:51:15.824Z,101125.50
2022-09-22T12:54:23.706Z,101124.47
2022-09-22T12:57:27.497Z,101131.59
2022-09-22T13:00:39.725Z,101127.00
2022-09-22T13:03:49.156Z,101125.09
2022-09-22T13:06:53.017Z,101117.34
2022-09-22T13:10:23.091Z,101120.72
2022-09-22T13:13:40.046Z,101124.47
2022-09-22T13:16:42.179Z,101115.63
2022-09-22T13:19:56.044Z,101131.28
2022-09-22T13:23:05.765Z,101137.47
2022-09-22T13:26:12.469Z,101143.75
2022-09-22T13:29:14.390Z,101145.44
2022-09-22T13:32:26.881Z,101144.00
2022-09-22T13:35:36.401Z,101143.59
2022-09-22T13:38:51.174Z,101150.72
2022-09-22T13:41:59.346Z,101152.28
2022-09-22T13:45:08.173Z,101151.66
2022-09-22T13:48:15.646Z,101151.00
2022-09-22T13:51:17.806Z,101142.50
2022-09-22T13:54:24.880Z,101136.47
2022-09-22T13:57:34.656Z,101146.16
2022-09-22T14:04:50.932Z,101149.22
2022-09-22T14:08:11.133Z,101143.41
2022-09-22T14:11:27.502Z,101147.28
2022-09-22T14:14:29.398Z,101143.50
2022-09-22T14:17:31.417Z,101147.50
2022-09-22T14:20:38.044Z,101144.56
2022-09-22T14:23:45.882Z,101156.09
2022-09-22T14:27:03.057Z,101149.22
2022-09-22T14:30:14.814Z,101150.91
2022-09-22T14:33:25.644Z,101153.44
2022-09-22T14:36:27.910Z,101159.50
2022-09-22T14:39:34.280Z,101145.91
2022-09-22T14:42:37.234Z,101165.81
2022-09-22T14:45:56.911Z,101164.81
2022-09-22T14:48:59.059Z,101156.44
2022-09-22T14:52:01.538Z,101148.09
2022-09-22T14:55:20.183Z,101157.09
2022-09-22T14:58:27.990Z,101152.03
2022-09-22T15:01:50.936Z,101161.88
2022-09-22T15:04:53.805Z,101156.00
2022-09-22T15:07:56.082Z,101162.22
2022-09-22T15:11:01.061Z,101162.88
2022-09-22T15:14:44.236Z,101146.00
2022-09-22T15:18:10.440Z,101174.16
2022-09-22T15:21:14.055Z,101184.19
2022-09-22T15:24:21.362Z,101159.44
2022-09-22T15:27:23.351Z,101152.25
2022-09-22T15:30:26.181Z,101182.25
2022-09-22T15:33:28.161Z,101175.16
2022-09-22T15:36:32.965Z,101184.78
2022-09-22T15:39:35.518Z,101186.88
2022-09-22T15:42:48.183Z,101182.47
2022-09-22T15:46:04.990Z,101185.38
2022-09-22T15:49:14.043Z,101184.91
2022-09-22T15:52:16.123Z,101186.34
2022-09-22T15:55:20.847Z,101184.44
2022-09-22T15:58:23.327Z,101185.41
2022-09-22T16:01:29.486Z,101183.72
2022-09-22T16:04:34.291Z,101187.94
2022-09-22T16:07:38.523Z,101195.31
2022-09-22T16:10:42.114Z,101192.84
2022-09-22T16:13:44.595Z,101198.06
2022-09-22T16:16:46.525Z,101200.63
2022-09-22T16:19:48.411Z,101193.28
2022-09-22T16:22:50.893Z,101194.34
2022-09-22T16:25:53.372Z,101198.72
2022-09-22T16:28:56.269Z,101197.44
2022-09-22T16:31:58.798Z,101205.59
2022-09-22T16:35:00.706Z,101210.00
2022-09-22T16:38:03.635Z,101213.75
2022-09-22T16:41:17.145Z,101215.66
2022-09-22T16:44:19.118Z,101223.16
2022-09-22T16:47:22.835Z,101219.81
2022-09-22T16:50:25.029Z,101230.47
2022-09-22T16:53:27.151Z,101238.41
2022-09-22T16:56:31.010Z,101238.63
2022-09-22T16:59:33.499Z,101215.91
2022-09-22T17:02:36.078Z,101246.41
2022-09-22T17:05:39.571Z,101246.78
2022-09-22T17:08:43.928Z,101231.16
2022-09-22T17:11:49.202Z,101245.09
2022-09-22T17:14:51.243Z,101242.56
2022-09-22T17:17:53.248Z,101255.59
2022-09-22T17:20:55.211Z,101252.81
2022-09-22T17:24:03.172Z,101262.72
2022-09-22T17:27:05.648Z,101261.88
2022-09-22T17:30:08.248Z,101264.59
2022-09-22T17:33:10.271Z,101260.16
2022-09-22T17:36:20.410Z,101262.88
2022-09-22T17:39:24.703Z,101263.75
2022-09-22T17:42:27.386Z,101261.03
2022-09-22T17:45:29.333Z,101269.19
2022-09-22T17:48:49.797Z,101257.59
2022-09-22T17:52:10.207Z,101277.91
2022-09-22T17:55:20.618Z,101277.75
2022-09-22T17:58:22.824Z,101273.31
2022-09-22T18:01:24.751Z,101277.28
2022-09-22T18:04:27.862Z,101277.91
2022-09-22T18:07:29.862Z,101273.31
2022-09-22T18:10:34.756Z,101268.47
2022-09-22T18:13:40.484Z,101269.75
2022-09-22T18:16:42.580Z,101275.41
2022-09-22T18:19:44.886Z,101266.34
2022-09-22T18:22:48.080Z,101274.94
2022-09-22T18:25:51.322Z,101282.72
2022-09-22T18:28:54.139Z,101280.19
2022-09-22T18:31:58.988Z,101271.56
2022-09-22T18:35:01.235Z,101284.59
2022-09-22T18:38:04.037Z,101280.38
2022-09-22T18:41:05.929Z,101278.50
2022-09-22T18:44:09.242Z,101266.50
2022-09-22T18:47:14.948Z,101278.88
2022-09-22T18:50:16.967Z,101280.56
2022-09-22T18:53:22.178Z,101280.56
2022-09-22T18:56:25.589Z,101258.78
2022-09-22T18:59:27.656Z,101275.34
2022-09-22T19:02:30.346Z,101276.56
2022-09-22T19:05:32.394Z,101272.16
2022-09-22T19:08:34.341Z,101270.72
2022-09-22T19:11:36.351Z,101272.59
2022-09-22T19:14:39.896Z,101263.16
2022-09-22T19:17:46.203Z,101268.00
2022-09-22T19:20:49.037Z,101270.72
2022-09-22T19:23:51.162Z,101270.28
2022-09-22T19:26:55.558Z,101268.22
2022-09-22T19:29:58.076Z,101263.34
2022-09-22T19:33:00.381Z,101217.69
2022-09-22T19:36:02.429Z,101281.81
2022-09-22T19:39:08.571Z,101268.16
2022-09-22T19:42:10.669Z,101254.94
2022-09-22T19:45:12.819Z,101262.44
2022-09-22T19:48:15.395Z,101263.94
2022-09-22T19:51:17.873Z,101270.59
2022-09-22T19:54:21.062Z,101272.00
2022-09-22T19:57:23.096Z,101276.03
2022-09-22T20:00:28.130Z,101256.94
2022-09-22T20:03:30.074Z,101265.00
2022-09-22T20:06:33.710Z,101283.56
2022-09-22T20:09:35.736Z,101285.44
2022-09-22T20:12:37.679Z,101277.88
2022-09-22T20:15:39.978Z,101288.63
2022-09-22T20:18:42.012Z,101282.91
2022-09-22T20:21:45.650Z,101282.69
2022-09-22T20:24:54.139Z,101295.53
2022-09-22T20:27:56.342Z,101283.59
2022-09-22T20:30:58.466Z,101291.25
2022-09-22T20:34:00.485Z,101288.03
2022-09-22T20:37:02.367Z,101288.78
2022-09-22T20:40:07.293Z,101281.09
2022-09-22T20:43:12.422Z,101282.59
2022-09-22T20:46:14.597Z,101269.84
2022-09-22T20:49:19.555Z,101268.66
2022-09-22T20:52:21.459Z,101274.56
2022-09-22T20:55:23.435Z,101268.16
2022-09-22T20:58:25.401Z,101280.16
2022-09-22T21:01:27.408Z,101270.50
2022-09-22T21:04:30.336Z,101286.91
2022-09-22T21:07:32.748Z,101279.56
2022-09-22T21:10:35.561Z,101285.88
2022-09-22T21:13:37.869Z,101277.91
2022-09-22T21:16:40.095Z,101280.44
2022-09-22T21:19:42.079Z,101280.44
2022-09-22T21:22:44.483Z,101275.19
2022-09-22T21:26:00.582Z,101283.72
2022-09-22T21:29:02.657Z,101291.88
2022-09-22T21:32:05.102Z,101285.94
2022-09-22T21:35:07.708Z,101288.16
2022-09-22T21:38:09.637Z,101281.38
2022-09-22T21:41:17.476Z,101274.09
2022-09-22T21:44:19.377Z,101280.00
2022-09-22T21:47:21.382Z,101281.66
2022-09-22T21:50:23.414Z,101279.78
2022-09-22T21:53:26.906Z,101287.09
2022-09-22T21:56:30.267Z,101285.44
2022-09-22T21:59:32.173Z,101285.59
2022-09-22T22:02:54.070Z,101279.31
2022-09-22T22:06:28.563Z,101285.13
2022-09-22T22:09:30.464Z,101278.94
2022-09-22T22:12:32.510Z,101274.03
2022-09-22T22:15:34.786Z,101270.47
2022-09-22T22:18:37.170Z,101278.13
2022-09-22T22:21:43.728Z,101269.22
2022-09-22T22:24:48.418Z,101274.09
2022-09-22T22:27:50.500Z,101267.44
2022-09-22T22:30:52.738Z,101272.41
2022-09-22T22:33:55.430Z,101262.00
2022-09-22T22:37:00.645Z,101261.63
2022-09-22T22:40:02.646Z,101255.13
2022-09-22T22:43:04.708Z,101258.13
2022-09-22T22:46:08.176Z,101260.66
2022-09-22T22:49:11.631Z,101262.19
2022-09-22T22:52:13.689Z,101257.78
2022-09-22T22:55:15.806Z,101244.53
2022-09-22T22:58:17.842Z,101251.88
2022-09-22T23:01:27.676Z,101248.69
2022-09-22T23:04:29.621Z,101242.38
2022-09-22T23:07:31.617Z,101252.03
2022-09-22T23:10:34.511Z,101255.06
2022-09-22T23:13:36.879Z,101252.34
2022-09-22T23:16:44.109Z,101251.00
2022-09-22T23:19:45.994Z,101263.22
2022-09-22T23:22:49.252Z,101262.53
2022-09-22T23:25:51.798Z,101259.81
2022-09-22T23:28:54.672Z,101240.09
2022-09-22T23:31:56.727Z,101239.16
2022-09-22T23:34:58.657Z,101254.59
2022-09-22T23:38:00.828Z,101250.38
2022-09-22T23:41:03.822Z,101254.59
2022-09-22T23:44:06.921Z,101260.19
2022-09-22T23:47:12.184Z,101243.25
2022-09-22T23:50:16.225Z,101233.59
2022-09-22T23:53:20.353Z,101253.91
2022-09-22T23:56:22.365Z,101237.09
2022-09-22T23:59:24.250Z,101247.56
